sensor_id;sensor_type;location;lat;lon;timestamp;temperature;humidity
39969;DHT22;25648;47.808;19.004;2022-09-09T00:04:37;25.90;65.60
39969;DHT22;25648;47.808;19.004;2022-09-09T00:07:25;26.00;65.30
39969;DHT22;25648;47.808;19.004;2022-09-09T00:13:37;25.90;65.30
39969;DHT22;25648;47.808;19.004;2022-09-09T00:21:15;25.80;65.30
39969;DHT22;25648;47.808;19.004;2022-09-09T00:23:55;25.90;65.70
39969;DHT22;25648;47.808;19.004;2022-09-09T00:26:35;25.90;65.80
39969;DHT22;25648;47.808;19.004;2022-09-09T00:29:25;25.60;65.80
39969;DHT22;25648;47.808;19.004;2022-09-09T00:32:00;25.60;65.80
39969;DHT22;25648;47.808;19.004;2022-09-09T00:34:30;25.70;66.20
39969;DHT22;25648;47.808;19.004;2022-09-09T00:36:57;25.80;64.80
39969;DHT22;25648;47.808;19.004;2022-09-09T00:39:36;25.80;65.40
39969;DHT22;25648;47.808;19.004;2022-09-09T00:44:39;25.60;65.70
39969;DHT22;25648;47.808;19.004;2022-09-09T00:55:08;25.90;64.40
39969;DHT22;25648;47.808;19.004;2022-09-09T00:57:36;25.80;64.70
39969;DHT22;25648;47.808;19.004;2022-09-09T01:00:18;25.20;65.60
39969;DHT22;25648;47.808;19.004;2022-09-09T01:10:56;25.00;66.20
39969;DHT22;25648;47.808;19.004;2022-09-09T01:13:27;24.90;67.20
39969;DHT22;25648;47.808;19.004;2022-09-09T01:15:57;25.10;67.20
39969;DHT22;25648;47.808;19.004;2022-09-09T01:18:29;25.10;66.10
39969;DHT22;25648;47.808;19.004;2022-09-09T01:21:08;25.00;66.60
39969;DHT22;25648;47.808;19.004;2022-09-09T01:26:31;25.10;66.50
39969;DHT22;25648;47.808;19.004;2022-09-09T01:28:59;25.30;66.00
39969;DHT22;25648;47.808;19.004;2022-09-09T01:31:41;25.50;65.70
39969;DHT22;25648;47.808;19.004;2022-09-09T01:34:14;25.40;65.50
39969;DHT22;25648;47.808;19.004;2022-09-09T01:36:51;25.50;65.10
39969;DHT22;25648;47.808;19.004;2022-09-09T01:39:19;25.70;64.60
39969;DHT22;25648;47.808;19.004;2022-09-09T01:41:45;25.70;64.60
39969;DHT22;25648;47.808;19.004;2022-09-09T01:44:11;25.70;64.70
39969;DHT22;25648;47.808;19.004;2022-09-09T01:46:37;25.60;64.20
39969;DHT22;25648;47.808;19.004;2022-09-09T01:49:05;25.70;64.70
39969;DHT22;25648;47.808;19.004;2022-09-09T01:51:33;25.60;65.50
39969;DHT22;25648;47.808;19.004;2022-09-09T01:53:59;25.50;65.00
39969;DHT22;25648;47.808;19.004;2022-09-09T02:04:43;25.70;64.30
39969;DHT22;25648;47.808;19.004;2022-09-09T02:07:39;25.50;65.50
39969;DHT22;25648;47.808;19.004;2022-09-09T02:10:30;25.10;66.10
39969;DHT22;25648;47.808;19.004;2022-09-09T02:13:18;25.10;65.70
39969;DHT22;25648;47.808;19.004;2022-09-09T02:18:15;24.90;66.10
39969;DHT22;25648;47.808;19.004;2022-09-09T02:20:44;25.00;66.00
39969;DHT22;25648;47.808;19.004;2022-09-09T02:23:11;25.10;65.80
39969;DHT22;25648;47.808;19.004;2022-09-09T02:25:40;25.10;66.30
39969;DHT22;25648;47.808;19.004;2022-09-09T02:28:08;25.30;65.90
39969;DHT22;25648;47.808;19.004;2022-09-09T02:30:37;25.30;65.50
39969;DHT22;25648;47.808;19.004;2022-09-09T02:33:04;25.30;65.80
39969;DHT22;25648;47.808;19.004;2022-09-09T02:35:33;25.30;65.80
39969;DHT22;25648;47.808;19.004;2022-09-09T02:38:08;25.40;65.90
39969;DHT22;25648;47.808;19.004;2022-09-09T02:40:35;25.40;65.40
39969;DHT22;25648;47.808;19.004;2022-09-09T02:43:02;25.30;65.50
39969;DHT22;25648;47.808;19.004;2022-09-09T02:46:21;25.30;65.20
39969;DHT22;25648;47.808;19.004;2022-09-09T02:48:33;25.50;65.00
39969;DHT22;25648;47.808;19.004;2022-09-09T02:51:08;25.30;65.50
39969;DHT22;25648;47.808;19.004;2022-09-09T02:54:34;25.30;64.90
39969;DHT22;25648;47.808;19.004;2022-09-09T02:56:40;25.30;65.10
39969;DHT22;25648;47.808;19.004;2022-09-09T02:59:07;25.00;65.90
39969;DHT22;25648;47.808;19.004;2022-09-09T03:01:33;25.00;66.40
39969;DHT22;25648;47.808;19.004;2022-09-09T03:04:03;25.00;66.10
39969;DHT22;25648;47.808;19.004;2022-09-09T03:06:33;25.30;65.40
39969;DHT22;25648;47.808;19.004;2022-09-09T03:09:01;25.60;64.60
39969;DHT22;25648;47.808;19.004;2022-09-09T03:11:28;25.70;64.60
39969;DHT22;25648;47.808;19.004;2022-09-09T03:13:54;25.70;64.20
39969;DHT22;25648;47.808;19.004;2022-09-09T03:16:22;25.60;63.90
39969;DHT22;25648;47.808;19.004;2022-09-09T03:18:48;25.50;64.60
39969;DHT22;25648;47.808;19.004;2022-09-09T03:21:14;25.30;65.20
39969;DHT22;25648;47.808;19.004;2022-09-09T03:23:40;25.20;65.20
39969;DHT22;25648;47.808;19.004;2022-09-09T03:26:06;25.30;64.90
39969;DHT22;25648;47.808;19.004;2022-09-09T03:28:32;25.40;64.60
39969;DHT22;25648;47.808;19.004;2022-09-09T03:31:00;25.40;64.60
39969;DHT22;25648;47.808;19.004;2022-09-09T03:33:25;25.40;65.00
39969;DHT22;25648;47.808;19.004;2022-09-09T03:35:51;25.30;64.70
39969;DHT22;25648;47.808;19.004;2022-09-09T03:38:23;25.40;64.50
39969;DHT22;25648;47.808;19.004;2022-09-09T03:40:52;25.40;65.20
39969;DHT22;25648;47.808;19.004;2022-09-09T03:43:23;25.30;64.60
39969;DHT22;25648;47.808;19.004;2022-09-09T03:45:49;25.00;65.80
39969;DHT22;25648;47.808;19.004;2022-09-09T03:48:16;25.00;65.60
39969;DHT22;25648;47.808;19.004;2022-09-09T03:50:49;25.10;65.40
39969;DHT22;25648;47.808;19.004;2022-09-09T03:53:16;25.00;65.40
39969;DHT22;25648;47.808;19.004;2022-09-09T03:55:50;25.00;65.80
39969;DHT22;25648;47.808;19.004;2022-09-09T03:58:21;24.90;66.00
39969;DHT22;25648;47.808;19.004;2022-09-09T04:01:02;25.10;65.30
39969;DHT22;25648;47.808;19.004;2022-09-09T04:03:28;25.00;65.40
39969;DHT22;25648;47.808;19.004;2022-09-09T04:06:56;25.00;64.90
39969;DHT22;25648;47.808;19.004;2022-09-09T04:09:22;25.10;64.90
39969;DHT22;25648;47.808;19.004;2022-09-09T04:11:48;25.10;64.80
39969;DHT22;25648;47.808;19.004;2022-09-09T04:14:15;24.90;65.80
39969;DHT22;25648;47.808;19.004;2022-09-09T04:16:40;25.00;65.10
39969;DHT22;25648;47.808;19.004;2022-09-09T04:19:10;24.90;65.30
39969;DHT22;25648;47.808;19.004;2022-09-09T04:21:38;25.00;65.10
39969;DHT22;25648;47.808;19.004;2022-09-09T04:24:06;25.20;64.60
39969;DHT22;25648;47.808;19.004;2022-09-09T04:26:32;25.20;64.40
39969;DHT22;25648;47.808;19.004;2022-09-09T04:28:58;25.10;64.50
39969;DHT22;25648;47.808;19.004;2022-09-09T04:31:24;25.10;64.40
39969;DHT22;25648;47.808;19.004;2022-09-09T04:33:53;25.10;64.30
39969;DHT22;25648;47.808;19.004;2022-09-09T04:36:18;25.00;64.80
39969;DHT22;25648;47.808;19.004;2022-09-09T04:38:45;24.90;65.10
39969;DHT22;25648;47.808;19.004;2022-09-09T04:41:12;24.90;65.30
39969;DHT22;25648;47.808;19.004;2022-09-09T04:43:38;25.00;64.90
39969;DHT22;25648;47.808;19.004;2022-09-09T04:46:04;25.10;64.40
39969;DHT22;25648;47.808;19.004;2022-09-09T04:48:30;25.00;64.90
39969;DHT22;25648;47.808;19.004;2022-09-09T04:51:00;25.10;64.70
39969;DHT22;25648;47.808;19.004;2022-09-09T04:53:27;25.10;64.50
39969;DHT22;25648;47.808;19.004;2022-09-09T04:56:03;25.10;65.00
39969;DHT22;25648;47.808;19.004;2022-09-09T04:58:30;25.00;64.80
39969;DHT22;25648;47.808;19.004;2022-09-09T05:01:06;24.70;65.60
39969;DHT22;25648;47.808;19.004;2022-09-09T05:03:32;24.80;65.80
39969;DHT22;25648;47.808;19.004;2022-09-09T05:06:05;24.90;66.00
39969;DHT22;25648;47.808;19.004;2022-09-09T05:08:31;24.90;65.40
39969;DHT22;25648;47.808;19.004;2022-09-09T05:10:57;24.80;65.70
39969;DHT22;25648;47.808;19.004;2022-09-09T05:13:25;24.60;66.30
39969;DHT22;25648;47.808;19.004;2022-09-09T05:15:52;24.70;66.20
39969;DHT22;25648;47.808;19.004;2022-09-09T05:18:18;24.80;65.80
39969;DHT22;25648;47.808;19.004;2022-09-09T05:20:44;24.90;66.10
39969;DHT22;25648;47.808;19.004;2022-09-09T05:23:10;24.90;66.20
39969;DHT22;25648;47.808;19.004;2022-09-09T05:25:39;25.10;65.90
39969;DHT22;25648;47.808;19.004;2022-09-09T05:28:06;25.00;65.60
39969;DHT22;25648;47.808;19.004;2022-09-09T05:30:33;24.90;66.00
39969;DHT22;25648;47.808;19.004;2022-09-09T05:35:09;25.20;65.10
39969;DHT22;25648;47.808;19.004;2022-09-09T05:37:35;25.10;65.10
39969;DHT22;25648;47.808;19.004;2022-09-09T05:40:01;25.10;65.70
39969;DHT22;25648;47.808;19.004;2022-09-09T05:42:30;25.20;65.00
39969;DHT22;25648;47.808;19.004;2022-09-09T05:44:56;24.50;67.00
39969;DHT22;25648;47.808;19.004;2022-09-09T05:47:23;24.70;66.60
39969;DHT22;25648;47.808;19.004;2022-09-09T05:49:49;24.90;65.70
39969;DHT22;25648;47.808;19.004;2022-09-09T05:52:15;25.20;65.50
39969;DHT22;25648;47.808;19.004;2022-09-09T05:54:43;25.40;65.10
39969;DHT22;25648;47.808;19.004;2022-09-09T05:57:09;25.50;65.00
39969;DHT22;25648;47.808;19.004;2022-09-09T05:59:34;25.50;64.70
39969;DHT22;25648;47.808;19.004;2022-09-09T06:02:00;25.40;64.70
39969;DHT22;25648;47.808;19.004;2022-09-09T06:04:26;25.30;65.30
39969;DHT22;25648;47.808;19.004;2022-09-09T06:06:51;25.50;64.90
39969;DHT22;25648;47.808;19.004;2022-09-09T06:09:17;25.50;64.60
39969;DHT22;25648;47.808;19.004;2022-09-09T06:11:43;25.70;64.70
39969;DHT22;25648;47.808;19.004;2022-09-09T06:14:09;25.80;64.60
39969;DHT22;25648;47.808;19.004;2022-09-09T06:16:35;26.00;64.00
39969;DHT22;25648;47.808;19.004;2022-09-09T06:19:03;25.90;64.80
39969;DHT22;25648;47.808;19.004;2022-09-09T06:21:34;26.10;64.20
39969;DHT22;25648;47.808;19.004;2022-09-09T06:24:03;26.20;63.90
39969;DHT22;25648;47.808;19.004;2022-09-09T06:26:37;26.30;63.90
39969;DHT22;25648;47.808;19.004;2022-09-09T06:29:04;26.10;63.80
39969;DHT22;25648;47.808;19.004;2022-09-09T06:31:31;26.10;64.00
39969;DHT22;25648;47.808;19.004;2022-09-09T06:33:58;26.20;64.40
39969;DHT22;25648;47.808;19.004;2022-09-09T06:36:25;26.30;63.50
39969;DHT22;25648;47.808;19.004;2022-09-09T06:38:51;26.00;63.80
39969;DHT22;25648;47.808;19.004;2022-09-09T06:41:19;25.90;64.40
39969;DHT22;25648;47.808;19.004;2022-09-09T06:43:48;26.00;64.00
39969;DHT22;25648;47.808;19.004;2022-09-09T06:46:19;26.20;63.90
39969;DHT22;25648;47.808;19.004;2022-09-09T06:48:47;26.40;63.90
39969;DHT22;25648;47.808;19.004;2022-09-09T06:51:18;26.60;63.60
39969;DHT22;25648;47.808;19.004;2022-09-09T06:53:47;26.50;63.50
39969;DHT22;25648;47.808;19.004;2022-09-09T06:59:00;26.80;62.90
39969;DHT22;25648;47.808;19.004;2022-09-09T07:01:56;26.80;62.80
39969;DHT22;25648;47.808;19.004;2022-09-09T07:04:24;26.60;62.70
39969;DHT22;25648;47.808;19.004;2022-09-09T07:10:12;26.20;63.50
39969;DHT22;25648;47.808;19.004;2022-09-09T07:12:53;26.20;63.50
39969;DHT22;25648;47.808;19.004;2022-09-09T07:15:20;26.40;63.80
39969;DHT22;25648;47.808;19.004;2022-09-09T07:17:46;26.70;63.60
39969;DHT22;25648;47.808;19.004;2022-09-09T07:20:13;26.90;62.90
39969;DHT22;25648;47.808;19.004;2022-09-09T07:22:40;26.80;62.90
39969;DHT22;25648;47.808;19.004;2022-09-09T07:25:07;27.10;62.40
39969;DHT22;25648;47.808;19.004;2022-09-09T07:27:36;27.20;62.50
39969;DHT22;25648;47.808;19.004;2022-09-09T07:30:03;27.30;62.30
39969;DHT22;25648;47.808;19.004;2022-09-09T07:32:29;27.30;62.00
39969;DHT22;25648;47.808;19.004;2022-09-09T07:34:56;27.30;62.20
39969;DHT22;25648;47.808;19.004;2022-09-09T07:37:23;27.50;61.70
39969;DHT22;25648;47.808;19.004;2022-09-09T07:39:49;27.70;61.80
39969;DHT22;25648;47.808;19.004;2022-09-09T07:42:16;27.80;61.30
39969;DHT22;25648;47.808;19.004;2022-09-09T07:44:42;27.80;61.40
39969;DHT22;25648;47.808;19.004;2022-09-09T07:47:08;27.70;62.10
39969;DHT22;25648;47.808;19.004;2022-09-09T07:49:34;27.80;60.60
39969;DHT22;25648;47.808;19.004;2022-09-09T07:52:01;28.00;61.80
39969;DHT22;25648;47.808;19.004;2022-09-09T07:54:27;28.10;61.40
39969;DHT22;25648;47.808;19.004;2022-09-09T07:56:53;28.00;61.50
39969;DHT22;25648;47.808;19.004;2022-09-09T07:59:19;28.30;60.80
39969;DHT22;25648;47.808;19.004;2022-09-09T08:01:51;28.50;60.70
39969;DHT22;25648;47.808;19.004;2022-09-09T08:04:20;28.60;60.30
39969;DHT22;25648;47.808;19.004;2022-09-09T08:06:53;28.70;59.80
39969;DHT22;25648;47.808;19.004;2022-09-09T08:09:19;28.60;60.40
39969;DHT22;25648;47.808;19.004;2022-09-09T08:11:46;28.60;60.80
39969;DHT22;25648;47.808;19.004;2022-09-09T08:14:14;28.80;61.00
39969;DHT22;25648;47.808;19.004;2022-09-09T08:16:45;29.00;60.60
39969;DHT22;25648;47.808;19.004;2022-09-09T08:19:12;29.00;60.50
39969;DHT22;25648;47.808;19.004;2022-09-09T08:21:39;29.00;59.30
39969;DHT22;25648;47.808;19.004;2022-09-09T08:24:06;28.10;59.90
39969;DHT22;25648;47.808;19.004;2022-09-09T08:26:36;28.00;61.50
39969;DHT22;25648;47.808;19.004;2022-09-09T08:29:04;28.30;61.70
39969;DHT22;25648;47.808;19.004;2022-09-09T08:31:36;28.70;61.20
39969;DHT22;25648;47.808;19.004;2022-09-09T08:34:03;29.00;60.50
39969;DHT22;25648;47.808;19.004;2022-09-09T08:36:32;29.20;60.40
39969;DHT22;25648;47.808;19.004;2022-09-09T08:39:02;29.40;59.90
39969;DHT22;25648;47.808;19.004;2022-09-09T08:44:30;29.40;59.40
39969;DHT22;25648;47.808;19.004;2022-09-09T08:58:26;30.00;58.60
39969;DHT22;25648;47.808;19.004;2022-09-09T09:06:31;30.10;59.40
39969;DHT22;25648;47.808;19.004;2022-09-09T09:11:59;30.30;58.50
39969;DHT22;25648;47.808;19.004;2022-09-09T09:14:33;30.40;58.90
39969;DHT22;25648;47.808;19.004;2022-09-09T09:17:19;30.50;58.80
39969;DHT22;25648;47.808;19.004;2022-09-09T09:19:47;30.50;57.60
39969;DHT22;25648;47.808;19.004;2022-09-09T09:27:31;30.70;58.30
39969;DHT22;25648;47.808;19.004;2022-09-09T09:30:00;30.90;56.30
39969;DHT22;25648;47.808;19.004;2022-09-09T09:32:30;31.00;57.40
39969;DHT22;25648;47.808;19.004;2022-09-09T09:34:58;31.10;56.30
39969;DHT22;25648;47.808;19.004;2022-09-09T09:37:31;31.10;55.90
39969;DHT22;25648;47.808;19.004;2022-09-09T09:40:08;31.00;57.00
39969;DHT22;25648;47.808;19.004;2022-09-09T09:42:34;31.00;57.70
39969;DHT22;25648;47.808;19.004;2022-09-09T09:45:26;30.90;56.60
39969;DHT22;25648;47.808;19.004;2022-09-09T09:48:02;30.80;56.50
39969;DHT22;25648;47.808;19.004;2022-09-09T09:50:29;30.90;56.60
39969;DHT22;25648;47.808;19.004;2022-09-09T09:52:56;30.90;55.30
39969;DHT22;25648;47.808;19.004;2022-09-09T09:55:23;30.80;56.90
39969;DHT22;25648;47.808;19.004;2022-09-09T09:57:49;31.00;56.60
39969;DHT22;25648;47.808;19.004;2022-09-09T10:00:18;31.30;56.10
39969;DHT22;25648;47.808;19.004;2022-09-09T10:02:45;31.30;55.00
39969;DHT22;25648;47.808;19.004;2022-09-09T10:05:29;31.60;55.90
39969;DHT22;25648;47.808;19.004;2022-09-09T10:08:08;32.30;55.80
39969;DHT22;25648;47.808;19.004;2022-09-09T10:13:15;32.90;53.50
39969;DHT22;25648;47.808;19.004;2022-09-09T10:15:46;32.70;52.60
39969;DHT22;25648;47.808;19.004;2022-09-09T10:26:49;32.80;53.30
39969;DHT22;25648;47.808;19.004;2022-09-09T10:35:29;32.50;51.70
39969;DHT22;25648;47.808;19.004;2022-09-09T10:38:16;31.80;52.40
39969;DHT22;25648;47.808;19.004;2022-09-09T10:43:46;32.00;53.80
39969;DHT22;25648;47.808;19.004;2022-09-09T10:46:45;32.10;52.70
39969;DHT22;25648;47.808;19.004;2022-09-09T10:55:17;32.30;52.40
39969;DHT22;25648;47.808;19.004;2022-09-09T10:57:52;32.20;52.40
39969;DHT22;25648;47.808;19.004;2022-09-09T11:00:38;32.10;52.00
39969;DHT22;25648;47.808;19.004;2022-09-09T11:03:05;32.20;52.00
39969;DHT22;25648;47.808;19.004;2022-09-09T11:05:42;31.90;51.30
39969;DHT22;25648;47.808;19.004;2022-09-09T11:08:20;31.80;51.70
39969;DHT22;25648;47.808;19.004;2022-09-09T11:11:00;31.90;51.90
39969;DHT22;25648;47.808;19.004;2022-09-09T11:14:02;32.10;51.20
39969;DHT22;25648;47.808;19.004;2022-09-09T11:16:39;32.00;50.60
39969;DHT22;25648;47.808;19.004;2022-09-09T11:19:18;32.00;51.60
39969;DHT22;25648;47.808;19.004;2022-09-09T11:21:47;32.30;51.10
39969;DHT22;25648;47.808;19.004;2022-09-09T11:24:27;32.60;51.00
39969;DHT22;25648;47.808;19.004;2022-09-09T11:27:06;32.80;48.80
39969;DHT22;25648;47.808;19.004;2022-09-09T11:32:48;32.20;49.90
39969;DHT22;25648;47.808;19.004;2022-09-09T11:42:35;31.80;48.80
39969;DHT22;25648;47.808;19.004;2022-09-09T11:45:23;31.70;48.90
39969;DHT22;25648;47.808;19.004;2022-09-09T11:48:00;31.70;49.70
39969;DHT22;25648;47.808;19.004;2022-09-09T11:50:27;31.60;49.50
39969;DHT22;25648;47.808;19.004;2022-09-09T11:55:39;31.60;49.50
39969;DHT22;25648;47.808;19.004;2022-09-09T11:58:17;31.60;49.40
39969;DHT22;25648;47.808;19.004;2022-09-09T12:00:48;31.70;49.80
39969;DHT22;25648;47.808;19.004;2022-09-09T12:09:20;31.80;50.50
39969;DHT22;25648;47.808;19.004;2022-09-09T12:11:46;31.90;49.30
39969;DHT22;25648;47.808;19.004;2022-09-09T12:19:40;32.80;49.20
39969;DHT22;25648;47.808;19.004;2022-09-09T12:22:08;33.00;48.70
39969;DHT22;25648;47.808;19.004;2022-09-09T12:24:49;33.00;48.60
39969;DHT22;25648;47.808;19.004;2022-09-09T12:30:00;33.20;48.20
39969;DHT22;25648;47.808;19.004;2022-09-09T12:32:27;32.90;47.80
39969;DHT22;25648;47.808;19.004;2022-09-09T12:35:12;32.50;48.80
39969;DHT22;25648;47.808;19.004;2022-09-09T12:37:42;32.20;49.70
39969;DHT22;25648;47.808;19.004;2022-09-09T12:40:30;31.80;49.90
39969;DHT22;25648;47.808;19.004;2022-09-09T12:42:58;32.00;50.80
39969;DHT22;25648;47.808;19.004;2022-09-09T12:45:29;32.30;50.30
39969;DHT22;25648;47.808;19.004;2022-09-09T12:48:11;32.70;49.50
39969;DHT22;25648;47.808;19.004;2022-09-09T12:50:51;32.80;49.30
39969;DHT22;25648;47.808;19.004;2022-09-09T12:55:53;33.10;50.00
39969;DHT22;25648;47.808;19.004;2022-09-09T12:58:20;33.20;49.50
39969;DHT22;25648;47.808;19.004;2022-09-09T13:00:53;33.20;48.90
39969;DHT22;25648;47.808;19.004;2022-09-09T13:03:22;33.10;48.90
39969;DHT22;25648;47.808;19.004;2022-09-09T13:05:49;32.50;48.10
39969;DHT22;25648;47.808;19.004;2022-09-09T13:08:16;31.90;49.00
39969;DHT22;25648;47.808;19.004;2022-09-09T13:11:00;31.80;50.30
39969;DHT22;25648;47.808;19.004;2022-09-09T13:13:52;32.20;50.10
39969;DHT22;25648;47.808;19.004;2022-09-09T13:16:25;32.40;49.10
39969;DHT22;25648;47.808;19.004;2022-09-09T13:18:52;32.60;49.40
39969;DHT22;25648;47.808;19.004;2022-09-09T13:21:18;32.70;48.90
39969;DHT22;25648;47.808;19.004;2022-09-09T13:23:49;32.70;48.40
39969;DHT22;25648;47.808;19.004;2022-09-09T13:26:25;32.60;48.80
39969;DHT22;25648;47.808;19.004;2022-09-09T13:28:53;32.70;48.60
39969;DHT22;25648;47.808;19.004;2022-09-09T13:31:35;32.70;49.40
39969;DHT22;25648;47.808;19.004;2022-09-09T13:34:11;32.40;48.50
39969;DHT22;25648;47.808;19.004;2022-09-09T13:36:38;32.20;48.50
39969;DHT22;25648;47.808;19.004;2022-09-09T13:39:16;32.20;49.40
39969;DHT22;25648;47.808;19.004;2022-09-09T13:41:44;32.20;50.10
39969;DHT22;25648;47.808;19.004;2022-09-09T13:44:28;32.30;49.70
39969;DHT22;25648;47.808;19.004;2022-09-09T13:47:20;32.40;48.50
39969;DHT22;25648;47.808;19.004;2022-09-09T13:49:48;32.60;49.50
39969;DHT22;25648;47.808;19.004;2022-09-09T13:52:16;32.70;49.70
39969;DHT22;25648;47.808;19.004;2022-09-09T13:54:48;32.90;48.80
39969;DHT22;25648;47.808;19.004;2022-09-09T13:57:23;32.90;48.60
39969;DHT22;25648;47.808;19.004;2022-09-09T13:59:52;32.90;49.40
39969;DHT22;25648;47.808;19.004;2022-09-09T14:02:18;32.90;49.30
39969;DHT22;25648;47.808;19.004;2022-09-09T14:04:44;33.00;48.10
39969;DHT22;25648;47.808;19.004;2022-09-09T14:07:15;32.90;48.00
39969;DHT22;25648;47.808;19.004;2022-09-09T14:09:41;32.90;46.90
39969;DHT22;25648;47.808;19.004;2022-09-09T14:12:11;32.90;45.30
39969;DHT22;25648;47.808;19.004;2022-09-09T14:14:37;32.80;45.40
39969;DHT22;25648;47.808;19.004;2022-09-09T14:17:03;33.00;46.50
39969;DHT22;25648;47.808;19.004;2022-09-09T14:19:29;33.10;46.90
39969;DHT22;25648;47.808;19.004;2022-09-09T14:21:57;33.30;47.10
39969;DHT22;25648;47.808;19.004;2022-09-09T14:24:22;33.60;46.20
39969;DHT22;25648;47.808;19.004;2022-09-09T14:26:48;33.60;46.90
39969;DHT22;25648;47.808;19.004;2022-09-09T14:29:14;33.60;44.60
39969;DHT22;25648;47.808;19.004;2022-09-09T14:31:40;33.40;43.40
39969;DHT22;25648;47.808;19.004;2022-09-09T14:34:05;33.10;44.10
39969;DHT22;25648;47.808;19.004;2022-09-09T14:36:31;32.80;43.40
39969;DHT22;25648;47.808;19.004;2022-09-09T14:38:57;32.80;45.10
39969;DHT22;25648;47.808;19.004;2022-09-09T14:41:23;32.80;44.30
39969;DHT22;25648;47.808;19.004;2022-09-09T14:43:50;32.80;45.60
39969;DHT22;25648;47.808;19.004;2022-09-09T14:46:19;32.50;43.50
39969;DHT22;25648;47.808;19.004;2022-09-09T14:48:45;32.10;45.10
39969;DHT22;25648;47.808;19.004;2022-09-09T14:51:23;31.90;45.50
39969;DHT22;25648;47.808;19.004;2022-09-09T14:53:55;31.90;46.60
39969;DHT22;25648;47.808;19.004;2022-09-09T14:56:23;32.10;48.10
39969;DHT22;25648;47.808;19.004;2022-09-09T14:58:49;32.30;48.10
39969;DHT22;25648;47.808;19.004;2022-09-09T15:01:18;32.60;48.60
39969;DHT22;25648;47.808;19.004;2022-09-09T15:03:50;32.80;49.60
39969;DHT22;25648;47.808;19.004;2022-09-09T15:06:16;33.00;49.60
39969;DHT22;25648;47.808;19.004;2022-09-09T15:08:43;32.90;49.60
39969;DHT22;25648;47.808;19.004;2022-09-09T15:11:11;32.90;51.00
39969;DHT22;25648;47.808;19.004;2022-09-09T15:13:39;32.90;51.20
39969;DHT22;25648;47.808;19.004;2022-09-09T15:16:13;32.70;50.70
39969;DHT22;25648;47.808;19.004;2022-09-09T15:18:39;32.50;50.00
39969;DHT22;25648;47.808;19.004;2022-09-09T15:21:09;32.20;49.80
39969;DHT22;25648;47.808;19.004;2022-09-09T15:23:36;32.10;50.70
39969;DHT22;25648;47.808;19.004;2022-09-09T15:26:02;31.90;49.60
39969;DHT22;25648;47.808;19.004;2022-09-09T15:28:28;31.90;51.20
39969;DHT22;25648;47.808;19.004;2022-09-09T15:30:55;32.00;51.90
39969;DHT22;25648;47.808;19.004;2022-09-09T15:33:22;32.10;51.90
39969;DHT22;25648;47.808;19.004;2022-09-09T15:35:48;32.20;51.60
39969;DHT22;25648;47.808;19.004;2022-09-09T15:38:15;32.40;51.40
39969;DHT22;25648;47.808;19.004;2022-09-09T15:40:43;32.30;52.50
39969;DHT22;25648;47.808;19.004;2022-09-09T15:43:09;32.20;53.00
39969;DHT22;25648;47.808;19.004;2022-09-09T15:45:36;32.20;53.70
39969;DHT22;25648;47.808;19.004;2022-09-09T15:48:03;32.20;53.80
39969;DHT22;25648;47.808;19.004;2022-09-09T15:50:29;32.20;54.10
39969;DHT22;25648;47.808;19.004;2022-09-09T15:52:59;32.30;54.40
39969;DHT22;25648;47.808;19.004;2022-09-09T15:55:25;32.20;54.80
39969;DHT22;25648;47.808;19.004;2022-09-09T15:57:51;32.10;55.60
39969;DHT22;25648;47.808;19.004;2022-09-09T16:00:21;31.90;54.20
39969;DHT22;25648;47.808;19.004;2022-09-09T16:02:48;31.60;54.80
39969;DHT22;25648;47.808;19.004;2022-09-09T16:05:13;31.70;55.10
39969;DHT22;25648;47.808;19.004;2022-09-09T16:07:39;31.80;54.50
39969;DHT22;25648;47.808;19.004;2022-09-09T16:10:08;31.90;54.40
39969;DHT22;25648;47.808;19.004;2022-09-09T16:12:34;31.90;54.70
39969;DHT22;25648;47.808;19.004;2022-09-09T16:14:59;32.00;54.80
39969;DHT22;25648;47.808;19.004;2022-09-09T16:17:25;32.10;54.50
39969;DHT22;25648;47.808;19.004;2022-09-09T16:19:53;32.00;54.70
39969;DHT22;25648;47.808;19.004;2022-09-09T16:22:19;31.80;55.60
39969;DHT22;25648;47.808;19.004;2022-09-09T16:24:45;31.60;56.00
39969;DHT22;25648;47.808;19.004;2022-09-09T16:27:11;31.60;55.30
39969;DHT22;25648;47.808;19.004;2022-09-09T16:29:37;31.60;55.80
39969;DHT22;25648;47.808;19.004;2022-09-09T16:32:03;31.60;55.70
39969;DHT22;25648;47.808;19.004;2022-09-09T16:34:29;31.60;56.10
39969;DHT22;25648;47.808;19.004;2022-09-09T16:36:54;31.50;56.20
39969;DHT22;25648;47.808;19.004;2022-09-09T16:39:20;31.60;56.30
39969;DHT22;25648;47.808;19.004;2022-09-09T16:41:47;31.60;56.40
39969;DHT22;25648;47.808;19.004;2022-09-09T16:44:15;31.60;56.30
39969;DHT22;25648;47.808;19.004;2022-09-09T16:46:43;31.70;56.40
39969;DHT22;25648;47.808;19.004;2022-09-09T16:49:12;31.70;56.80
39969;DHT22;25648;47.808;19.004;2022-09-09T16:51:41;31.60;57.40
39969;DHT22;25648;47.808;19.004;2022-09-09T16:54:08;31.60;57.50
39969;DHT22;25648;47.808;19.004;2022-09-09T16:56:36;31.60;57.60
39969;DHT22;25648;47.808;19.004;2022-09-09T16:59:05;31.60;57.50
39969;DHT22;25648;47.808;19.004;2022-09-09T17:01:44;31.50;57.70
39969;DHT22;25648;47.808;19.004;2022-09-09T17:04:16;31.30;57.80
39969;DHT22;25648;47.808;19.004;2022-09-09T17:06:47;31.20;58.10
39969;DHT22;25648;47.808;19.004;2022-09-09T17:09:15;31.00;59.30
39969;DHT22;25648;47.808;19.004;2022-09-09T17:11:41;30.90;59.30
39969;DHT22;25648;47.808;19.004;2022-09-09T17:14:09;30.90;59.40
39969;DHT22;25648;47.808;19.004;2022-09-09T17:16:36;30.90;59.00
39969;DHT22;25648;47.808;19.004;2022-09-09T17:19:04;30.90;59.00
39969;DHT22;25648;47.808;19.004;2022-09-09T17:21:31;30.90;58.70
39969;DHT22;25648;47.808;19.004;2022-09-09T17:23:58;30.80;58.50
39969;DHT22;25648;47.808;19.004;2022-09-09T17:26:27;30.70;58.60
39969;DHT22;25648;47.808;19.004;2022-09-09T17:28:54;30.60;59.10
39969;DHT22;25648;47.808;19.004;2022-09-09T17:31:21;30.60;58.90
39969;DHT22;25648;47.808;19.004;2022-09-09T17:33:48;30.60;58.70
39969;DHT22;25648;47.808;19.004;2022-09-09T17:36:37;30.60;58.70
39969;DHT22;25648;47.808;19.004;2022-09-09T17:39:03;30.60;58.60
39969;DHT22;25648;47.808;19.004;2022-09-09T17:41:32;30.60;58.80
39969;DHT22;25648;47.808;19.004;2022-09-09T17:43:58;30.40;59.10
39969;DHT22;25648;47.808;19.004;2022-09-09T17:46:32;30.40;59.00
39969;DHT22;25648;47.808;19.004;2022-09-09T17:49:03;30.40;58.50
39969;DHT22;25648;47.808;19.004;2022-09-09T17:51:31;30.40;58.80